sensor_id;sensor_type;location;lat;lon;timestamp;P1;durP1;ratioP1;P2;durP2;ratioP2
41255;SDS011;26989;45.524;10.938;2024-03-22T00:01:49;69.00;;;35.72;;
41255;SDS011;26989;45.524;10.938;2024-03-22T00:04:17;77.15;;;35.95;;
41255;SDS011;26989;45.524;10.938;2024-03-22T00:06:44;71.25;;;36.53;;
41255;SDS011;26989;45.524;10.938;2024-03-22T00:09:11;73.97;;;35.20;;
41255;SDS011;26989;45.524;10.938;2024-03-22T00:11:38;64.03;;;32.15;;
41255;SDS011;26989;45.524;10.938;2024-03-22T00:14:05;67.85;;;33.08;;
41255;SDS011;26989;45.524;10.938;2024-03-22T00:16:31;65.18;;;31.80;;
41255;SDS011;26989;45.524;10.938;2024-03-22T00:18:57;65.05;;;33.42;;
41255;SDS011;26989;45.524;10.938;2024-03-22T00:21:23;66.85;;;32.50;;
41255;SDS011;26989;45.524;10.938;2024-03-22T00:23:49;58.78;;;28.05;;
41255;SDS011;26989;45.524;10.938;2024-03-22T00:26:15;62.78;;;28.38;;
41255;SDS011;26989;45.524;10.938;2024-03-22T00:28:41;59.25;;;28.90;;
41255;SDS011;26989;45.524;10.938;2024-03-22T00:31:08;57.83;;;26.27;;
41255;SDS011;26989;45.524;10.938;2024-03-22T00:33:34;52.28;;;26.00;;
41255;SDS011;26989;45.524;10.938;2024-03-22T00:36:00;59.20;;;26.35;;
41255;SDS011;26989;45.524;10.938;2024-03-22T00:38:26;47.05;;;23.55;;
41255;SDS011;26989;45.524;10.938;2024-03-22T00:40:52;50.45;;;22.95;;
41255;SDS011;26989;45.524;10.938;2024-03-22T00:43:18;51.25;;;22.77;;
41255;SDS011;26989;45.524;10.938;2024-03-22T00:45:45;47.38;;;22.67;;
41255;SDS011;26989;45.524;10.938;2024-03-22T00:48:11;43.65;;;23.30;;
41255;SDS011;26989;45.524;10.938;2024-03-22T00:50:37;41.35;;;19.80;;
41255;SDS011;26989;45.524;10.938;2024-03-22T00:53:03;45.00;;;22.73;;
41255;SDS011;26989;45.524;10.938;2024-03-22T00:55:30;40.92;;;18.50;;
41255;SDS011;26989;45.524;10.938;2024-03-22T00:57:56;35.10;;;18.70;;
41255;SDS011;26989;45.524;10.938;2024-03-22T01:00:22;37.30;;;16.67;;
41255;SDS011;26989;45.524;10.938;2024-03-22T01:02:49;31.77;;;15.30;;
41255;SDS011;26989;45.524;10.938;2024-03-22T01:05:16;32.17;;;15.30;;
41255;SDS011;26989;45.524;10.938;2024-03-22T01:07:42;32.53;;;15.60;;
41255;SDS011;26989;45.524;10.938;2024-03-22T01:10:08;32.13;;;16.23;;
41255;SDS011;26989;45.524;10.938;2024-03-22T01:12:35;30.80;;;15.57;;
41255;SDS011;26989;45.524;10.938;2024-03-22T01:15:01;33.17;;;16.08;;
41255;SDS011;26989;45.524;10.938;2024-03-22T01:17:27;33.65;;;15.45;;
41255;SDS011;26989;45.524;10.938;2024-03-22T01:19:52;27.88;;;12.98;;
41255;SDS011;26989;45.524;10.938;2024-03-22T01:22:18;27.98;;;13.00;;
41255;SDS011;26989;45.524;10.938;2024-03-22T01:24:44;28.33;;;13.98;;
41255;SDS011;26989;45.524;10.938;2024-03-22T01:27:10;36.00;;;15.80;;
41255;SDS011;26989;45.524;10.938;2024-03-22T01:29:37;25.50;;;13.25;;
41255;SDS011;26989;45.524;10.938;2024-03-22T01:32:03;28.73;;;14.13;;
41255;SDS011;26989;45.524;10.938;2024-03-22T01:34:29;28.42;;;13.30;;
41255;SDS011;26989;45.524;10.938;2024-03-22T01:36:55;27.67;;;15.52;;
41255;SDS011;26989;45.524;10.938;2024-03-22T01:39:21;35.95;;;16.65;;
41255;SDS011;26989;45.524;10.938;2024-03-22T01:41:48;32.13;;;15.50;;
41255;SDS011;26989;45.524;10.938;2024-03-22T01:44:14;31.00;;;15.88;;
41255;SDS011;26989;45.524;10.938;2024-03-22T01:46:40;35.85;;;16.17;;
41255;SDS011;26989;45.524;10.938;2024-03-22T01:49:07;33.88;;;16.60;;
41255;SDS011;26989;45.524;10.938;2024-03-22T01:51:35;40.78;;;19.58;;
41255;SDS011;26989;45.524;10.938;2024-03-22T01:54:01;45.28;;;21.40;;
41255;SDS011;26989;45.524;10.938;2024-03-22T01:56:28;48.50;;;23.40;;
41255;SDS011;26989;45.524;10.938;2024-03-22T01:58:55;55.17;;;24.60;;
41255;SDS011;26989;45.524;10.938;2024-03-22T02:01:22;42.40;;;20.15;;
41255;SDS011;26989;45.524;10.938;2024-03-22T02:03:49;37.80;;;17.40;;
41255;SDS011;26989;45.524;10.938;2024-03-22T02:06:16;32.67;;;16.45;;
41255;SDS011;26989;45.524;10.938;2024-03-22T02:08:41;37.17;;;15.40;;
41255;SDS011;26989;45.524;10.938;2024-03-22T02:11:09;31.00;;;15.35;;
41255;SDS011;26989;45.524;10.938;2024-03-22T02:13:35;35.90;;;17.42;;
41255;SDS011;26989;45.524;10.938;2024-03-22T02:16:04;36.45;;;18.50;;
41255;SDS011;26989;45.524;10.938;2024-03-22T02:21:48;40.30;;;18.65;;
41255;SDS011;26989;45.524;10.938;2024-03-22T02:24:14;36.13;;;16.95;;
41255;SDS011;26989;45.524;10.938;2024-03-22T02:26:40;34.28;;;15.25;;
41255;SDS011;26989;45.524;10.938;2024-03-22T02:29:06;30.75;;;13.68;;
41255;SDS011;26989;45.524;10.938;2024-03-22T02:31:32;26.92;;;12.48;;
41255;SDS011;26989;45.524;10.938;2024-03-22T02:33:58;29.42;;;14.63;;
41255;SDS011;26989;45.524;10.938;2024-03-22T02:36:24;31.30;;;14.15;;
41255;SDS011;26989;45.524;10.938;2024-03-22T02:38:50;24.30;;;11.45;;
41255;SDS011;26989;45.524;10.938;2024-03-22T02:41:15;18.73;;;9.45;;
41255;SDS011;26989;45.524;10.938;2024-03-22T02:43:41;19.35;;;10.77;;
41255;SDS011;26989;45.524;10.938;2024-03-22T02:46:07;23.00;;;10.05;;
41255;SDS011;26989;45.524;10.938;2024-03-22T02:48:33;22.02;;;10.38;;
41255;SDS011;26989;45.524;10.938;2024-03-22T02:50:59;28.35;;;13.52;;
41255;SDS011;26989;45.524;10.938;2024-03-22T02:53:25;26.52;;;13.00;;
41255;SDS011;26989;45.524;10.938;2024-03-22T02:55:50;21.45;;;11.07;;
41255;SDS011;26989;45.524;10.938;2024-03-22T02:58:16;18.35;;;10.00;;
41255;SDS011;26989;45.524;10.938;2024-03-22T03:00:47;19.10;;;8.82;;
41255;SDS011;26989;45.524;10.938;2024-03-22T03:03:13;21.13;;;10.73;;
41255;SDS011;26989;45.524;10.938;2024-03-22T03:05:39;18.60;;;9.98;;
41255;SDS011;26989;45.524;10.938;2024-03-22T03:08:06;19.00;;;8.65;;
41255;SDS011;26989;45.524;10.938;2024-03-22T03:10:32;22.88;;;9.00;;
41255;SDS011;26989;45.524;10.938;2024-03-22T03:12:58;14.82;;;7.18;;
41255;SDS011;26989;45.524;10.938;2024-03-22T03:15:24;13.75;;;6.95;;
41255;SDS011;26989;45.524;10.938;2024-03-22T03:17:49;11.98;;;6.82;;
41255;SDS011;26989;45.524;10.938;2024-03-22T03:20:17;11.93;;;5.38;;
41255;SDS011;26989;45.524;10.938;2024-03-22T03:22:43;8.15;;;4.95;;
41255;SDS011;26989;45.524;10.938;2024-03-22T03:25:09;8.88;;;4.65;;
41255;SDS011;26989;45.524;10.938;2024-03-22T03:27:34;7.97;;;3.90;;
41255;SDS011;26989;45.524;10.938;2024-03-22T03:30:00;6.13;;;2.88;;
41255;SDS011;26989;45.524;10.938;2024-03-22T03:32:27;7.40;;;3.55;;
41255;SDS011;26989;45.524;10.938;2024-03-22T03:34:53;13.52;;;4.40;;
41255;SDS011;26989;45.524;10.938;2024-03-22T03:37:19;10.45;;;5.90;;
41255;SDS011;26989;45.524;10.938;2024-03-22T03:39:45;16.08;;;7.70;;
41255;SDS011;26989;45.524;10.938;2024-03-22T03:42:11;18.92;;;9.10;;
41255;SDS011;26989;45.524;10.938;2024-03-22T03:44:37;18.20;;;7.50;;
41255;SDS011;26989;45.524;10.938;2024-03-22T03:47:03;14.10;;;7.80;;
41255;SDS011;26989;45.524;10.938;2024-03-22T03:49:29;17.70;;;8.90;;
41255;SDS011;26989;45.524;10.938;2024-03-22T03:51:55;15.20;;;7.65;;
41255;SDS011;26989;45.524;10.938;2024-03-22T03:54:21;12.27;;;6.45;;
41255;SDS011;26989;45.524;10.938;2024-03-22T03:56:46;13.70;;;6.85;;
41255;SDS011;26989;45.524;10.938;2024-03-22T03:59:12;10.50;;;5.28;;
41255;SDS011;26989;45.524;10.938;2024-03-22T04:01:38;7.47;;;4.47;;
41255;SDS011;26989;45.524;10.938;2024-03-22T04:04:04;7.93;;;3.75;;
41255;SDS011;26989;45.524;10.938;2024-03-22T04:06:30;11.38;;;5.65;;
41255;SDS011;26989;45.524;10.938;2024-03-22T04:08:56;11.50;;;5.75;;
41255;SDS011;26989;45.524;10.938;2024-03-22T04:11:22;6.32;;;3.55;;
41255;SDS011;26989;45.524;10.938;2024-03-22T04:13:48;9.63;;;4.55;;
41255;SDS011;26989;45.524;10.938;2024-03-22T04:16:14;9.38;;;3.90;;
41255;SDS011;26989;45.524;10.938;2024-03-22T04:18:40;7.03;;;3.25;;
41255;SDS011;26989;45.524;10.938;2024-03-22T04:21:06;6.38;;;3.38;;
41255;SDS011;26989;45.524;10.938;2024-03-22T04:23:32;5.70;;;3.25;;
41255;SDS011;26989;45.524;10.938;2024-03-22T04:25:58;9.60;;;5.00;;
41255;SDS011;26989;45.524;10.938;2024-03-22T04:28:25;15.77;;;7.60;;
41255;SDS011;26989;45.524;10.938;2024-03-22T04:33:33;14.38;;;6.78;;
41255;SDS011;26989;45.524;10.938;2024-03-22T04:35:59;13.32;;;6.88;;
41255;SDS011;26989;45.524;10.938;2024-03-22T04:38:28;13.48;;;6.07;;
41255;SDS011;26989;45.524;10.938;2024-03-22T04:40:55;9.43;;;5.30;;
41255;SDS011;26989;45.524;10.938;2024-03-22T04:43:25;10.70;;;5.13;;
41255;SDS011;26989;45.524;10.938;2024-03-22T04:45:51;7.35;;;3.78;;
41255;SDS011;26989;45.524;10.938;2024-03-22T04:48:18;7.13;;;3.50;;
41255;SDS011;26989;45.524;10.938;2024-03-22T04:50:46;5.95;;;2.40;;
41255;SDS011;26989;45.524;10.938;2024-03-22T04:53:13;4.13;;;2.22;;
41255;SDS011;26989;45.524;10.938;2024-03-22T04:55:39;4.00;;;1.98;;
41255;SDS011;26989;45.524;10.938;2024-03-22T04:58:13;7.07;;;2.25;;
41255;SDS011;26989;45.524;10.938;2024-03-22T05:00:43;6.80;;;2.70;;
41255;SDS011;26989;45.524;10.938;2024-03-22T05:03:10;13.57;;;2.83;;
41255;SDS011;26989;45.524;10.938;2024-03-22T05:05:36;4.68;;;2.05;;
41255;SDS011;26989;45.524;10.938;2024-03-22T05:08:02;5.47;;;2.25;;
41255;SDS011;26989;45.524;10.938;2024-03-22T05:10:29;4.07;;;1.95;;
41255;SDS011;26989;45.524;10.938;2024-03-22T05:12:55;3.35;;;1.70;;
41255;SDS011;26989;45.524;10.938;2024-03-22T05:15:21;2.08;;;1.55;;
41255;SDS011;26989;45.524;10.938;2024-03-22T05:17:48;3.75;;;1.90;;
41255;SDS011;26989;45.524;10.938;2024-03-22T05:20:14;4.80;;;1.80;;
41255;SDS011;26989;45.524;10.938;2024-03-22T05:22:41;6.40;;;2.95;;
41255;SDS011;26989;45.524;10.938;2024-03-22T05:25:07;4.68;;;1.90;;
41255;SDS011;26989;45.524;10.938;2024-03-22T05:27:34;3.13;;;1.55;;
41255;SDS011;26989;45.524;10.938;2024-03-22T05:30:00;6.18;;;1.65;;
41255;SDS011;26989;45.524;10.938;2024-03-22T05:32:26;3.30;;;1.63;;
41255;SDS011;26989;45.524;10.938;2024-03-22T05:34:52;2.50;;;1.13;;
41255;SDS011;26989;45.524;10.938;2024-03-22T05:37:18;2.15;;;1.10;;
41255;SDS011;26989;45.524;10.938;2024-03-22T05:39:44;4.25;;;0.90;;
41255;SDS011;26989;45.524;10.938;2024-03-22T05:42:10;4.18;;;1.50;;
41255;SDS011;26989;45.524;10.938;2024-03-22T05:44:36;2.25;;;1.40;;
41255;SDS011;26989;45.524;10.938;2024-03-22T05:47:01;2.83;;;1.33;;
41255;SDS011;26989;45.524;10.938;2024-03-22T05:49:27;3.50;;;1.33;;
41255;SDS011;26989;45.524;10.938;2024-03-22T05:51:53;2.65;;;1.27;;
41255;SDS011;26989;45.524;10.938;2024-03-22T05:54:19;2.10;;;1.23;;
41255;SDS011;26989;45.524;10.938;2024-03-22T05:56:45;1.95;;;0.98;;
41255;SDS011;26989;45.524;10.938;2024-03-22T05:59:11;3.22;;;1.70;;
41255;SDS011;26989;45.524;10.938;2024-03-22T06:01:37;2.03;;;0.90;;
41255;SDS011;26989;45.524;10.938;2024-03-22T06:04:06;4.25;;;1.38;;
41255;SDS011;26989;45.524;10.938;2024-03-22T06:06:32;3.38;;;1.50;;
41255;SDS011;26989;45.524;10.938;2024-03-22T06:08:59;5.47;;;1.33;;
41255;SDS011;26989;45.524;10.938;2024-03-22T06:11:28;1.85;;;1.20;;
41255;SDS011;26989;45.524;10.938;2024-03-22T06:13:55;2.45;;;1.42;;
41255;SDS011;26989;45.524;10.938;2024-03-22T06:16:21;3.10;;;1.63;;
41255;SDS011;26989;45.524;10.938;2024-03-22T06:18:47;3.42;;;1.75;;
41255;SDS011;26989;45.524;10.938;2024-03-22T06:21:13;3.60;;;1.70;;
41255;SDS011;26989;45.524;10.938;2024-03-22T06:23:40;3.03;;;1.83;;
41255;SDS011;26989;45.524;10.938;2024-03-22T06:26:06;6.05;;;1.52;;
41255;SDS011;26989;45.524;10.938;2024-03-22T06:28:32;3.30;;;1.45;;
41255;SDS011;26989;45.524;10.938;2024-03-22T06:30:58;2.35;;;1.30;;
41255;SDS011;26989;45.524;10.938;2024-03-22T06:33:24;5.32;;;1.40;;
41255;SDS011;26989;45.524;10.938;2024-03-22T06:35:50;2.67;;;1.42;;
41255;SDS011;26989;45.524;10.938;2024-03-22T06:38:16;2.30;;;1.35;;
41255;SDS011;26989;45.524;10.938;2024-03-22T06:40:41;5.82;;;1.85;;
41255;SDS011;26989;45.524;10.938;2024-03-22T06:43:07;1.95;;;1.10;;
41255;SDS011;26989;45.524;10.938;2024-03-22T06:45:34;1.90;;;1.15;;
41255;SDS011;26989;45.524;10.938;2024-03-22T06:48:00;5.60;;;1.40;;
41255;SDS011;26989;45.524;10.938;2024-03-22T06:50:26;1.73;;;1.30;;
41255;SDS011;26989;45.524;10.938;2024-03-22T06:52:51;5.55;;;1.75;;
41255;SDS011;26989;45.524;10.938;2024-03-22T06:55:19;8.20;;;2.83;;
41255;SDS011;26989;45.524;10.938;2024-03-22T06:57:48;7.38;;;3.13;;
41255;SDS011;26989;45.524;10.938;2024-03-22T07:00:15;7.53;;;3.55;;
41255;SDS011;26989;45.524;10.938;2024-03-22T07:02:42;5.68;;;3.67;;
41255;SDS011;26989;45.524;10.938;2024-03-22T07:05:08;6.25;;;3.30;;
41255;SDS011;26989;45.524;10.938;2024-03-22T07:07:34;5.70;;;3.20;;
41255;SDS011;26989;45.524;10.938;2024-03-22T07:10:01;9.13;;;3.80;;
41255;SDS011;26989;45.524;10.938;2024-03-22T07:12:27;5.70;;;2.63;;
41255;SDS011;26989;45.524;10.938;2024-03-22T07:14:55;5.93;;;2.83;;
41255;SDS011;26989;45.524;10.938;2024-03-22T07:17:21;5.38;;;2.30;;
41255;SDS011;26989;45.524;10.938;2024-03-22T07:19:50;5.13;;;2.05;;
41255;SDS011;26989;45.524;10.938;2024-03-22T07:22:18;5.72;;;2.00;;
41255;SDS011;26989;45.524;10.938;2024-03-22T07:24:45;5.90;;;2.58;;
41255;SDS011;26989;45.524;10.938;2024-03-22T07:27:11;9.77;;;3.05;;
41255;SDS011;26989;45.524;10.938;2024-03-22T07:29:37;8.95;;;2.90;;
41255;SDS011;26989;45.524;10.938;2024-03-22T07:32:03;8.93;;;4.65;;
41255;SDS011;26989;45.524;10.938;2024-03-22T07:34:29;8.70;;;4.03;;
41255;SDS011;26989;45.524;10.938;2024-03-22T07:36:56;10.18;;;3.83;;
41255;SDS011;26989;45.524;10.938;2024-03-22T07:39:21;4.22;;;2.72;;
41255;SDS011;26989;45.524;10.938;2024-03-22T07:41:47;5.65;;;3.15;;
41255;SDS011;26989;45.524;10.938;2024-03-22T07:44:14;6.88;;;3.50;;
41255;SDS011;26989;45.524;10.938;2024-03-22T07:46:43;6.05;;;2.95;;
41255;SDS011;26989;45.524;10.938;2024-03-22T07:49:10;6.72;;;3.20;;
41255;SDS011;26989;45.524;10.938;2024-03-22T07:51:37;6.35;;;3.33;;
41255;SDS011;26989;45.524;10.938;2024-03-22T07:54:03;7.53;;;4.25;;
41255;SDS011;26989;45.524;10.938;2024-03-22T07:56:29;8.65;;;4.50;;
41255;SDS011;26989;45.524;10.938;2024-03-22T07:58:55;5.38;;;3.50;;
41255;SDS011;26989;45.524;10.938;2024-03-22T08:01:22;25.63;;;15.68;;
41255;SDS011;26989;45.524;10.938;2024-03-22T08:03:48;7.05;;;4.75;;
41255;SDS011;26989;45.524;10.938;2024-03-22T08:06:15;9.35;;;4.20;;
41255;SDS011;26989;45.524;10.938;2024-03-22T08:08:40;22.00;;;7.35;;
41255;SDS011;26989;45.524;10.938;2024-03-22T08:11:06;12.02;;;6.00;;
41255;SDS011;26989;45.524;10.938;2024-03-22T08:13:32;8.38;;;5.15;;
41255;SDS011;26989;45.524;10.938;2024-03-22T08:15:58;6.47;;;3.97;;
41255;SDS011;26989;45.524;10.938;2024-03-22T08:18:24;7.75;;;4.38;;
41255;SDS011;26989;45.524;10.938;2024-03-22T08:20:49;9.20;;;4.45;;
41255;SDS011;26989;45.524;10.938;2024-03-22T08:23:15;8.00;;;4.32;;
41255;SDS011;26989;45.524;10.938;2024-03-22T08:25:43;10.13;;;4.28;;
41255;SDS011;26989;45.524;10.938;2024-03-22T08:28:08;10.10;;;5.43;;
41255;SDS011;26989;45.524;10.938;2024-03-22T08:30:37;7.85;;;4.22;;
41255;SDS011;26989;45.524;10.938;2024-03-22T08:33:03;8.07;;;5.20;;
41255;SDS011;26989;45.524;10.938;2024-03-22T08:35:29;8.98;;;4.55;;
41255;SDS011;26989;45.524;10.938;2024-03-22T08:37:56;10.90;;;4.97;;
41255;SDS011;26989;45.524;10.938;2024-03-22T08:40:22;13.68;;;7.90;;
41255;SDS011;26989;45.524;10.938;2024-03-22T08:42:48;10.57;;;5.15;;
41255;SDS011;26989;45.524;10.938;2024-03-22T08:45:14;8.70;;;5.07;;
41255;SDS011;26989;45.524;10.938;2024-03-22T08:47:42;8.07;;;4.78;;
41255;SDS011;26989;45.524;10.938;2024-03-22T08:50:08;10.38;;;5.10;;
41255;SDS011;26989;45.524;10.938;2024-03-22T08:52:34;11.30;;;4.93;;
41255;SDS011;26989;45.524;10.938;2024-03-22T08:55:01;10.65;;;4.72;;
41255;SDS011;26989;45.524;10.938;2024-03-22T08:57:27;11.20;;;4.78;;
41255;SDS011;26989;45.524;10.938;2024-03-22T08:59:52;8.85;;;5.03;;
41255;SDS011;26989;45.524;10.938;2024-03-22T09:02:18;11.23;;;4.38;;
41255;SDS011;26989;45.524;10.938;2024-03-22T09:04:45;11.43;;;5.55;;
41255;SDS011;26989;45.524;10.938;2024-03-22T09:07:12;12.38;;;5.55;;
41255;SDS011;26989;45.524;10.938;2024-03-22T09:09:37;8.05;;;4.90;;
41255;SDS011;26989;45.524;10.938;2024-03-22T09:12:03;12.13;;;5.20;;
41255;SDS011;26989;45.524;10.938;2024-03-22T09:14:29;10.60;;;6.05;;
41255;SDS011;26989;45.524;10.938;2024-03-22T09:16:55;11.40;;;5.13;;
41255;SDS011;26989;45.524;10.938;2024-03-22T09:19:21;8.25;;;5.13;;
41255;SDS011;26989;45.524;10.938;2024-03-22T09:21:49;11.00;;;5.70;;
41255;SDS011;26989;45.524;10.938;2024-03-22T09:24:15;9.52;;;5.13;;
41255;SDS011;26989;45.524;10.938;2024-03-22T09:26:41;12.00;;;5.38;;
41255;SDS011;26989;45.524;10.938;2024-03-22T09:29:06;8.93;;;5.13;;
41255;SDS011;26989;45.524;10.938;2024-03-22T09:31:32;10.05;;;5.43;;
41255;SDS011;26989;45.524;10.938;2024-03-22T09:33:59;11.15;;;5.93;;
41255;SDS011;26989;45.524;10.938;2024-03-22T09:36:25;9.80;;;5.95;;
41255;SDS011;26989;45.524;10.938;2024-03-22T09:38:51;13.90;;;6.57;;
41255;SDS011;26989;45.524;10.938;2024-03-22T09:41:19;11.75;;;5.70;;
41255;SDS011;26989;45.524;10.938;2024-03-22T09:43:50;12.23;;;6.57;;
41255;SDS011;26989;45.524;10.938;2024-03-22T09:46:18;10.10;;;5.40;;
41255;SDS011;26989;45.524;10.938;2024-03-22T09:48:47;8.32;;;5.00;;
41255;SDS011;26989;45.524;10.938;2024-03-22T09:51:17;11.07;;;6.32;;
41255;SDS011;26989;45.524;10.938;2024-03-22T09:53:43;12.88;;;7.53;;
41255;SDS011;26989;45.524;10.938;2024-03-22T09:56:13;9.70;;;6.10;;
41255;SDS011;26989;45.524;10.938;2024-03-22T09:58:41;14.60;;;7.93;;
41255;SDS011;26989;45.524;10.938;2024-03-22T10:01:07;13.65;;;8.18;;
41255;SDS011;26989;45.524;10.938;2024-03-22T10:03:33;12.75;;;8.40;;
41255;SDS011;26989;45.524;10.938;2024-03-22T10:05:59;10.07;;;6.47;;
41255;SDS011;26989;45.524;10.938;2024-03-22T10:08:25;9.70;;;3.67;;
41255;SDS011;26989;45.524;10.938;2024-03-22T10:10:51;6.35;;;3.50;;
41255;SDS011;26989;45.524;10.938;2024-03-22T10:13:17;6.88;;;3.58;;
41255;SDS011;26989;45.524;10.938;2024-03-22T10:15:43;6.22;;;3.88;;
41255;SDS011;26989;45.524;10.938;2024-03-22T10:18:09;5.97;;;3.50;;
41255;SDS011;26989;45.524;10.938;2024-03-22T10:20:35;6.75;;;3.20;;
41255;SDS011;26989;45.524;10.938;2024-03-22T10:23:01;6.60;;;3.53;;
41255;SDS011;26989;45.524;10.938;2024-03-22T10:25:27;6.40;;;3.55;;
41255;SDS011;26989;45.524;10.938;2024-03-22T10:27:54;15.20;;;6.25;;
41255;SDS011;26989;45.524;10.938;2024-03-22T10:30:21;10.23;;;5.45;;
41255;SDS011;26989;45.524;10.938;2024-03-22T10:32:48;8.35;;;3.83;;
41255;SDS011;26989;45.524;10.938;2024-03-22T10:35:15;6.25;;;3.67;;
41255;SDS011;26989;45.524;10.938;2024-03-22T10:37:42;6.95;;;3.10;;
41255;SDS011;26989;45.524;10.938;2024-03-22T10:40:08;3.25;;;2.30;;
41255;SDS011;26989;45.524;10.938;2024-03-22T10:42:35;3.28;;;2.15;;
41255;SDS011;26989;45.524;10.938;2024-03-22T10:45:03;2.70;;;1.60;;
41255;SDS011;26989;45.524;10.938;2024-03-22T10:47:31;2.75;;;2.17;;
41255;SDS011;26989;45.524;10.938;2024-03-22T10:50:05;4.93;;;2.25;;
41255;SDS011;26989;45.524;10.938;2024-03-22T10:52:33;5.15;;;2.00;;
41255;SDS011;26989;45.524;10.938;2024-03-22T10:55:06;3.83;;;1.65;;
41255;SDS011;26989;45.524;10.938;2024-03-22T10:57:37;4.55;;;1.77;;
41255;SDS011;26989;45.524;10.938;2024-03-22T11:00:07;5.38;;;2.00;;
41255;SDS011;26989;45.524;10.938;2024-03-22T11:02:36;4.28;;;2.00;;
41255;SDS011;26989;45.524;10.938;2024-03-22T11:05:03;13.98;;;6.32;;
41255;SDS011;26989;45.524;10.938;2024-03-22T11:07:29;4.63;;;2.15;;
41255;SDS011;26989;45.524;10.938;2024-03-22T11:09:56;4.40;;;1.90;;
41255;SDS011;26989;45.524;10.938;2024-03-22T11:12:26;4.25;;;1.40;;
41255;SDS011;26989;45.524;10.938;2024-03-22T11:14:53;3.72;;;1.50;;
41255;SDS011;26989;45.524;10.938;2024-03-22T11:17:19;4.97;;;2.22;;
41255;SDS011;26989;45.524;10.938;2024-03-22T11:19:53;5.50;;;1.90;;
41255;SDS011;26989;45.524;10.938;2024-03-22T11:22:19;5.18;;;1.83;;
41255;SDS011;26989;45.524;10.938;2024-03-22T11:24:45;4.10;;;1.90;;
41255;SDS011;26989;45.524;10.938;2024-03-22T11:27:11;3.15;;;2.10;;
41255;SDS011;26989;45.524;10.938;2024-03-22T11:29:37;3.75;;;1.95;;
41255;SDS011;26989;45.524;10.938;2024-03-22T11:32:11;3.65;;;1.67;;
41255;SDS011;26989;45.524;10.938;2024-03-22T11:34:38;5.70;;;1.60;;
41255;SDS011;26989;45.524;10.938;2024-03-22T11:37:06;3.92;;;1.10;;
41255;SDS011;26989;45.524;10.938;2024-03-22T11:39:38;1.80;;;1.27;;
41255;SDS011;26989;45.524;10.938;2024-03-22T11:42:05;3.60;;;1.60;;
41255;SDS011;26989;45.524;10.938;2024-03-22T11:44:33;4.00;;;2.30;;
41255;SDS011;26989;45.524;10.938;2024-03-22T11:47:02;6.28;;;2.80;;
41255;SDS011;26989;45.524;10.938;2024-03-22T11:49:28;2.50;;;1.90;;
41255;SDS011;26989;45.524;10.938;2024-03-22T11:51:58;2.80;;;1.75;;
41255;SDS011;26989;45.524;10.938;2024-03-22T11:54:24;7.22;;;2.53;;
41255;SDS011;26989;45.524;10.938;2024-03-22T11:56:49;4.22;;;2.10;;
41255;SDS011;26989;45.524;10.938;2024-03-22T11:59:19;8.20;;;2.50;;
41255;SDS011;26989;45.524;10.938;2024-03-22T12:01:45;8.35;;;2.50;;
41255;SDS011;26989;45.524;10.938;2024-03-22T12:04:12;5.88;;;2.67;;
41255;SDS011;26989;45.524;10.938;2024-03-22T12:06:46;4.65;;;2.53;;
41255;SDS011;26989;45.524;10.938;2024-03-22T12:09:12;3.65;;;2.40;;
41255;SDS011;26989;45.524;10.938;2024-03-22T12:11:39;3.90;;;2.42;;
41255;SDS011;26989;45.524;10.938;2024-03-22T12:14:05;2.90;;;2.30;;
41255;SDS011;26989;45.524;10.938;2024-03-22T12:16:31;3.75;;;2.53;;
41255;SDS011;26989;45.524;10.938;2024-03-22T12:18:57;4.28;;;2.05;;
41255;SDS011;26989;45.524;10.938;2024-03-22T12:21:24;6.50;;;2.83;;
41255;SDS011;26989;45.524;10.938;2024-03-22T12:23:50;2.65;;;1.73;;
41255;SDS011;26989;45.524;10.938;2024-03-22T12:26:16;2.83;;;1.40;;
41255;SDS011;26989;45.524;10.938;2024-03-22T12:28:42;2.97;;;2.45;;
41255;SDS011;26989;45.524;10.938;2024-03-22T12:31:08;4.35;;;2.00;;
41255;SDS011;26989;45.524;10.938;2024-03-22T12:33:37;4.65;;;1.88;;
41255;SDS011;26989;45.524;10.938;2024-03-22T12:36:03;5.85;;;2.25;;
41255;SDS011;26989;45.524;10.938;2024-03-22T12:38:29;10.10;;;2.42;;
41255;SDS011;26989;45.524;10.938;2024-03-22T12:40:56;5.43;;;2.28;;
41255;SDS011;26989;45.524;10.938;2024-03-22T12:43:22;5.10;;;2.42;;
41255;SDS011;26989;45.524;10.938;2024-03-22T12:45:48;7.90;;;2.58;;
41255;SDS011;26989;45.524;10.938;2024-03-22T12:48:14;6.38;;;2.58;;
41255;SDS011;26989;45.524;10.938;2024-03-22T12:50:39;6.03;;;2.80;;
41255;SDS011;26989;45.524;10.938;2024-03-22T12:53:05;4.50;;;2.47;;
41255;SDS011;26989;45.524;10.938;2024-03-22T12:55:31;4.55;;;2.80;;
41255;SDS011;26989;45.524;10.938;2024-03-22T12:57:58;6.65;;;3.05;;
41255;SDS011;26989;45.524;10.938;2024-03-22T13:00:24;3.30;;;2.30;;
41255;SDS011;26989;45.524;10.938;2024-03-22T13:02:50;5.10;;;3.20;;
41255;SDS011;26989;45.524;10.938;2024-03-22T13:05:16;4.82;;;2.83;;
41255;SDS011;26989;45.524;10.938;2024-03-22T13:07:42;19.80;;;4.95;;
41255;SDS011;26989;45.524;10.938;2024-03-22T13:10:08;5.78;;;3.72;;
41255;SDS011;26989;45.524;10.938;2024-03-22T13:12:34;4.85;;;2.80;;
41255;SDS011;26989;45.524;10.938;2024-03-22T13:15:00;4.65;;;2.78;;
41255;SDS011;26989;45.524;10.938;2024-03-22T13:17:27;4.25;;;2.30;;
41255;SDS011;26989;45.524;10.938;2024-03-22T13:19:53;9.43;;;2.95;;
41255;SDS011;26989;45.524;10.938;2024-03-22T13:22:19;4.43;;;2.45;;
41255;SDS011;26989;45.524;10.938;2024-03-22T13:24:45;3.55;;;2.35;;
41255;SDS011;26989;45.524;10.938;2024-03-22T13:27:12;1.83;;;1.23;;
41255;SDS011;26989;45.524;10.938;2024-03-22T13:29:38;2.35;;;1.60;;
41255;SDS011;26989;45.524;10.938;2024-03-22T13:32:07;5.85;;;2.42;;
41255;SDS011;26989;45.524;10.938;2024-03-22T13:34:34;4.28;;;2.15;;
41255;SDS011;26989;45.524;10.938;2024-03-22T13:37:07;5.97;;;2.90;;
41255;SDS011;26989;45.524;10.938;2024-03-22T13:39:33;4.25;;;2.63;;
41255;SDS011;26989;45.524;10.938;2024-03-22T13:42:00;3.03;;;2.00;;
41255;SDS011;26989;45.524;10.938;2024-03-22T13:44:28;4.10;;;1.80;;
41255;SDS011;26989;45.524;10.938;2024-03-22T13:46:57;3.10;;;1.92;;
41255;SDS011;26989;45.524;10.938;2024-03-22T13:49:23;3.70;;;1.85;;
41255;SDS011;26989;45.524;10.938;2024-03-22T13:51:49;3.20;;;1.80;;
41255;SDS011;26989;45.524;10.938;2024-03-22T13:54:15;4.18;;;2.10;;
41255;SDS011;26989;45.524;10.938;2024-03-22T13:56:42;5.25;;;2.95;;
41255;SDS011;26989;45.524;10.938;2024-03-22T13:59:08;5.32;;;3.17;;
41255;SDS011;26989;45.524;10.938;2024-03-22T14:01:37;9.30;;;3.60;;
41255;SDS011;26989;45.524;10.938;2024-03-22T14:04:04;6.97;;;3.47;;
41255;SDS011;26989;45.524;10.938;2024-03-22T14:06:31;7.28;;;3.35;;
41255;SDS011;26989;45.524;10.938;2024-03-22T14:08:57;6.65;;;3.10;;
41255;SDS011;26989;45.524;10.938;2024-03-22T14:11:27;8.77;;;4.30;;
41255;SDS011;26989;45.524;10.938;2024-03-22T14:13:58;9.00;;;3.50;;
41255;SDS011;26989;45.524;10.938;2024-03-22T14:16:25;12.35;;;6.40;;
41255;SDS011;26989;45.524;10.938;2024-03-22T14:18:51;5.05;;;3.08;;
41255;SDS011;26989;45.524;10.938;2024-03-22T14:21:18;5.05;;;3.17;;
41255;SDS011;26989;45.524;10.938;2024-03-22T14:23:48;4.93;;;3.30;;
41255;SDS011;26989;45.524;10.938;2024-03-22T14:26:15;5.57;;;3.03;;
41255;SDS011;26989;45.524;10.938;2024-03-22T14:28:42;6.63;;;3.88;;